sensor_id;sensor_type;location;lat;lon;timestamp;temperature;humidity
75217;HTU21D;63800;51.972;5.682;2023-07-31T00:01:57;14.78;118.99
75217;HTU21D;63800;51.972;5.682;2023-07-31T00:04:22;14.93;118.99
75217;HTU21D;63800;51.972;5.682;2023-07-31T00:06:47;15.02;118.99
75217;HTU21D;63800;51.972;5.682;2023-07-31T00:09:13;14.93;118.99
75217;HTU21D;63800;51.972;5.682;2023-07-31T00:11:39;14.89;118.99
75217;HTU21D;63800;51.972;5.682;2023-07-31T00:14:04;15.30;118.99
75217;HTU21D;63800;51.972;5.682;2023-07-31T00:16:29;15.06;118.99
75217;HTU21D;63800;51.972;5.682;2023-07-31T00:18:55;15.14;118.99
75217;HTU21D;63800;51.972;5.682;2023-07-31T00:21:20;15.17;117.83
75217;HTU21D;63800;51.972;5.682;2023-07-31T00:23:46;15.16;118.88
75217;HTU21D;63800;51.972;5.682;2023-07-31T00:26:11;15.12;118.99
75217;HTU21D;63800;51.972;5.682;2023-07-31T00:28:37;15.32;118.99
75217;HTU21D;63800;51.972;5.682;2023-07-31T00:31:02;15.54;118.67
75217;HTU21D;63800;51.972;5.682;2023-07-31T00:33:29;15.57;118.16
75217;HTU21D;63800;51.972;5.682;2023-07-31T00:35:55;15.63;118.15
75217;HTU21D;63800;51.972;5.682;2023-07-31T00:38:20;15.78;118.07
75217;HTU21D;63800;51.972;5.682;2023-07-31T00:40:45;15.72;118.99
75217;HTU21D;63800;51.972;5.682;2023-07-31T00:43:11;15.78;118.99
75217;HTU21D;63800;51.972;5.682;2023-07-31T00:45:36;15.91;118.99
75217;HTU21D;63800;51.972;5.682;2023-07-31T00:48:02;16.03;118.99
75217;HTU21D;63800;51.972;5.682;2023-07-31T00:50:28;16.06;118.99
75217;HTU21D;63800;51.972;5.682;2023-07-31T00:52:54;16.32;118.37
75217;HTU21D;63800;51.972;5.682;2023-07-31T00:55:20;16.22;118.99
75217;HTU21D;63800;51.972;5.682;2023-07-31T00:57:47;16.37;118.99
75217;HTU21D;63800;51.972;5.682;2023-07-31T01:00:13;16.45;118.99
75217;HTU21D;63800;51.972;5.682;2023-07-31T01:02:38;16.43;118.99
75217;HTU21D;63800;51.972;5.682;2023-07-31T01:05:04;16.43;114.93
75217;HTU21D;63800;51.972;5.682;2023-07-31T01:10:12;16.51;114.90
75217;HTU21D;63800;51.972;5.682;2023-07-31T01:12:41;16.57;113.81
75217;HTU21D;63800;51.972;5.682;2023-07-31T01:15:08;16.58;114.61
75217;HTU21D;63800;51.972;5.682;2023-07-31T01:17:38;16.54;118.99
75217;HTU21D;63800;51.972;5.682;2023-07-31T01:20:05;16.49;118.99
75217;HTU21D;63800;51.972;5.682;2023-07-31T01:28:08;16.45;115.83
75217;HTU21D;63800;51.972;5.682;2023-07-31T01:30:42;16.46;118.12
75217;HTU21D;63800;51.972;5.682;2023-07-31T01:33:09;16.48;115.53
75217;HTU21D;63800;51.972;5.682;2023-07-31T01:35:36;16.44;114.30
75217;HTU21D;63800;51.972;5.682;2023-07-31T01:38:02;16.45;115.68
75217;HTU21D;63800;51.972;5.682;2023-07-31T01:40:27;16.42;116.18
75217;HTU21D;63800;51.972;5.682;2023-07-31T01:42:53;16.45;113.37
75217;HTU21D;63800;51.972;5.682;2023-07-31T01:45:18;16.49;118.99
75217;HTU21D;63800;51.972;5.682;2023-07-31T01:47:44;16.59;118.64
75217;HTU21D;63800;51.972;5.682;2023-07-31T01:50:10;16.47;114.50
75217;HTU21D;63800;51.972;5.682;2023-07-31T01:52:35;16.46;114.55
75217;HTU21D;63800;51.972;5.682;2023-07-31T01:55:01;16.48;113.61
75217;HTU21D;63800;51.972;5.682;2023-07-31T01:57:26;16.40;113.00
75217;HTU21D;63800;51.972;5.682;2023-07-31T01:59:51;16.55;117.32
75217;HTU21D;63800;51.972;5.682;2023-07-31T02:02:19;16.37;118.99
75217;HTU21D;63800;51.972;5.682;2023-07-31T02:04:44;16.46;118.99
75217;HTU21D;63800;51.972;5.682;2023-07-31T02:07:10;16.31;118.99
75217;HTU21D;63800;51.972;5.682;2023-07-31T02:09:35;16.25;118.99
75217;HTU21D;63800;51.972;5.682;2023-07-31T02:12:01;16.21;117.72
75217;HTU21D;63800;51.972;5.682;2023-07-31T02:14:26;16.20;118.99
75217;HTU21D;63800;51.972;5.682;2023-07-31T02:16:51;16.18;117.15
75217;HTU21D;63800;51.972;5.682;2023-07-31T02:19:17;16.25;118.99
75217;HTU21D;63800;51.972;5.682;2023-07-31T02:21:42;16.32;118.99
75217;HTU21D;63800;51.972;5.682;2023-07-31T02:24:08;16.41;118.99
75217;HTU21D;63800;51.972;5.682;2023-07-31T02:26:33;16.30;118.99
75217;HTU21D;63800;51.972;5.682;2023-07-31T02:28:58;16.34;118.99
75217;HTU21D;63800;51.972;5.682;2023-07-31T02:31:24;16.26;116.54
75217;HTU21D;63800;51.972;5.682;2023-07-31T02:33:49;16.33;117.76
75217;HTU21D;63800;51.972;5.682;2023-07-31T02:36:15;16.35;116.83
75217;HTU21D;63800;51.972;5.682;2023-07-31T02:38:40;16.27;117.69
75217;HTU21D;63800;51.972;5.682;2023-07-31T02:41:06;16.19;118.99
75217;HTU21D;63800;51.972;5.682;2023-07-31T02:43:31;16.16;118.99
75217;HTU21D;63800;51.972;5.682;2023-07-31T02:45:57;16.33;118.28
75217;HTU21D;63800;51.972;5.682;2023-07-31T02:48:22;16.31;115.25
75217;HTU21D;63800;51.972;5.682;2023-07-31T02:50:48;16.29;118.99
75217;HTU21D;63800;51.972;5.682;2023-07-31T02:53:13;16.26;118.99
75217;HTU21D;63800;51.972;5.682;2023-07-31T02:55:39;16.36;114.23
75217;HTU21D;63800;51.972;5.682;2023-07-31T02:58:05;16.22;116.83
75217;HTU21D;63800;51.972;5.682;2023-07-31T03:00:30;16.25;117.27
75217;HTU21D;63800;51.972;5.682;2023-07-31T03:02:56;16.28;118.53
75217;HTU21D;63800;51.972;5.682;2023-07-31T03:05:21;16.26;116.48
75217;HTU21D;63800;51.972;5.682;2023-07-31T03:07:46;16.29;113.28
75217;HTU21D;63800;51.972;5.682;2023-07-31T03:10:12;16.27;114.20
75217;HTU21D;63800;51.972;5.682;2023-07-31T03:12:37;16.25;114.90
75217;HTU21D;63800;51.972;5.682;2023-07-31T03:15:03;16.24;118.78
75217;HTU21D;63800;51.972;5.682;2023-07-31T03:17:29;16.33;113.32
75217;HTU21D;63800;51.972;5.682;2023-07-31T03:19:54;16.31;117.70
75217;HTU21D;63800;51.972;5.682;2023-07-31T03:22:19;16.26;117.55
75217;HTU21D;63800;51.972;5.682;2023-07-31T03:24:45;16.27;117.44
75217;HTU21D;63800;51.972;5.682;2023-07-31T03:27:10;16.28;113.38
75217;HTU21D;63800;51.972;5.682;2023-07-31T03:29:36;16.30;112.19
75217;HTU21D;63800;51.972;5.682;2023-07-31T03:32:01;16.18;114.62
75217;HTU21D;63800;51.972;5.682;2023-07-31T03:34:26;16.17;116.14
75217;HTU21D;63800;51.972;5.682;2023-07-31T03:36:52;16.33;115.26
75217;HTU21D;63800;51.972;5.682;2023-07-31T03:39:18;16.41;114.78
75217;HTU21D;63800;51.972;5.682;2023-07-31T03:41:43;16.30;111.17
75217;HTU21D;63800;51.972;5.682;2023-07-31T03:44:09;16.15;113.37
75217;HTU21D;63800;51.972;5.682;2023-07-31T03:46:34;16.26;109.69
75217;HTU21D;63800;51.972;5.682;2023-07-31T03:49:01;16.34;112.27
75217;HTU21D;63800;51.972;5.682;2023-07-31T03:51:26;16.24;110.58
75217;HTU21D;63800;51.972;5.682;2023-07-31T03:53:52;16.27;114.56
75217;HTU21D;63800;51.972;5.682;2023-07-31T03:56:17;16.28;111.23
75217;HTU21D;63800;51.972;5.682;2023-07-31T03:58:43;16.31;113.66
75217;HTU21D;63800;51.972;5.682;2023-07-31T04:01:08;16.29;112.20
75217;HTU21D;63800;51.972;5.682;2023-07-31T04:03:34;16.20;110.98
75217;HTU21D;63800;51.972;5.682;2023-07-31T04:05:59;16.28;110.58
75217;HTU21D;63800;51.972;5.682;2023-07-31T04:08:25;16.21;112.25
75217;HTU21D;63800;51.972;5.682;2023-07-31T04:10:50;16.41;109.70
75217;HTU21D;63800;51.972;5.682;2023-07-31T04:13:16;16.40;108.87
75217;HTU21D;63800;51.972;5.682;2023-07-31T04:15:41;16.25;110.47
75217;HTU21D;63800;51.972;5.682;2023-07-31T04:18:07;16.39;111.95
75217;HTU21D;63800;51.972;5.682;2023-07-31T04:20:33;16.29;110.97
75217;HTU21D;63800;51.972;5.682;2023-07-31T04:22:58;16.19;109.19
75217;HTU21D;63800;51.972;5.682;2023-07-31T04:25:23;16.22;111.24
75217;HTU21D;63800;51.972;5.682;2023-07-31T04:27:49;16.34;109.86
75217;HTU21D;63800;51.972;5.682;2023-07-31T04:30:14;16.32;110.84
75217;HTU21D;63800;51.972;5.682;2023-07-31T04:32:40;16.24;108.94
75217;HTU21D;63800;51.972;5.682;2023-07-31T04:35:05;16.16;109.59
75217;HTU21D;63800;51.972;5.682;2023-07-31T04:37:31;16.29;107.81
75217;HTU21D;63800;51.972;5.682;2023-07-31T04:39:57;16.32;108.52
75217;HTU21D;63800;51.972;5.682;2023-07-31T04:42:22;16.27;109.55
75217;HTU21D;63800;51.972;5.682;2023-07-31T04:44:47;16.31;109.14
75217;HTU21D;63800;51.972;5.682;2023-07-31T04:47:13;16.25;108.59
75217;HTU21D;63800;51.972;5.682;2023-07-31T04:49:38;16.39;107.24
75217;HTU21D;63800;51.972;5.682;2023-07-31T04:52:04;16.27;108.52
75217;HTU21D;63800;51.972;5.682;2023-07-31T04:54:30;16.42;107.91
75217;HTU21D;63800;51.972;5.682;2023-07-31T04:56:55;16.52;109.12
75217;HTU21D;63800;51.972;5.682;2023-07-31T04:59:20;16.37;109.55
75217;HTU21D;63800;51.972;5.682;2023-07-31T05:01:46;16.24;108.33
75217;HTU21D;63800;51.972;5.682;2023-07-31T05:04:15;16.14;111.29
75217;HTU21D;63800;51.972;5.682;2023-07-31T05:06:41;16.11;109.59
75217;HTU21D;63800;51.972;5.682;2023-07-31T05:09:07;16.07;113.44
75217;HTU21D;63800;51.972;5.682;2023-07-31T05:11:34;15.99;111.12
75217;HTU21D;63800;51.972;5.682;2023-07-31T05:14:00;16.00;110.74
75217;HTU21D;63800;51.972;5.682;2023-07-31T05:16:25;15.86;112.59
75217;HTU21D;63800;51.972;5.682;2023-07-31T05:18:50;15.92;112.19
75217;HTU21D;63800;51.972;5.682;2023-07-31T05:21:16;15.91;112.32
75217;HTU21D;63800;51.972;5.682;2023-07-31T05:23:41;15.74;118.24
75217;HTU21D;63800;51.972;5.682;2023-07-31T05:26:07;15.70;114.54
75217;HTU21D;63800;51.972;5.682;2023-07-31T05:28:35;15.82;118.99
75217;HTU21D;63800;51.972;5.682;2023-07-31T05:31:02;15.66;118.99
75217;HTU21D;63800;51.972;5.682;2023-07-31T05:33:28;15.78;118.99
75217;HTU21D;63800;51.972;5.682;2023-07-31T05:35:53;15.56;118.37
75217;HTU21D;63800;51.972;5.682;2023-07-31T05:38:18;15.53;117.53
75217;HTU21D;63800;51.972;5.682;2023-07-31T05:40:44;15.59;118.99
75217;HTU21D;63800;51.972;5.682;2023-07-31T05:43:09;15.56;117.66
75217;HTU21D;63800;51.972;5.682;2023-07-31T05:45:35;15.31;118.99
75217;HTU21D;63800;51.972;5.682;2023-07-31T05:48:02;15.45;118.99
75217;HTU21D;63800;51.972;5.682;2023-07-31T05:50:27;15.52;118.99
75217;HTU21D;63800;51.972;5.682;2023-07-31T05:52:53;15.63;118.92
75217;HTU21D;63800;51.972;5.682;2023-07-31T05:55:18;15.62;118.99
75217;HTU21D;63800;51.972;5.682;2023-07-31T05:57:44;15.65;117.68
75217;HTU21D;63800;51.972;5.682;2023-07-31T06:00:12;15.63;118.99
75217;HTU21D;63800;51.972;5.682;2023-07-31T06:02:37;15.59;118.99
75217;HTU21D;63800;51.972;5.682;2023-07-31T06:05:04;15.62;118.99
75217;HTU21D;63800;51.972;5.682;2023-07-31T06:07:31;15.57;118.99
75217;HTU21D;63800;51.972;5.682;2023-07-31T06:09:57;15.65;118.99
75217;HTU21D;63800;51.972;5.682;2023-07-31T06:12:28;15.62;118.99
75217;HTU21D;63800;51.972;5.682;2023-07-31T06:14:54;15.70;118.99
75217;HTU21D;63800;51.972;5.682;2023-07-31T06:17:19;15.69;118.99
75217;HTU21D;63800;51.972;5.682;2023-07-31T06:19:44;15.72;118.99
75217;HTU21D;63800;51.972;5.682;2023-07-31T06:22:10;15.70;118.99
75217;HTU21D;63800;51.972;5.682;2023-07-31T06:24:35;15.84;118.99
75217;HTU21D;63800;51.972;5.682;2023-07-31T06:27:01;15.89;118.99
75217;HTU21D;63800;51.972;5.682;2023-07-31T06:29:29;15.80;118.99
75217;HTU21D;63800;51.972;5.682;2023-07-31T06:31:54;15.83;118.99
75217;HTU21D;63800;51.972;5.682;2023-07-31T06:34:20;15.96;118.99
75217;HTU21D;63800;51.972;5.682;2023-07-31T06:36:45;15.93;118.99
75217;HTU21D;63800;51.972;5.682;2023-07-31T06:39:11;15.89;118.99
75217;HTU21D;63800;51.972;5.682;2023-07-31T06:41:38;16.01;118.99
75217;HTU21D;63800;51.972;5.682;2023-07-31T06:44:03;15.88;118.99
75217;HTU21D;63800;51.972;5.682;2023-07-31T06:46:29;16.01;118.99
75217;HTU21D;63800;51.972;5.682;2023-07-31T06:48:54;16.03;118.99
75217;HTU21D;63800;51.972;5.682;2023-07-31T06:51:20;16.02;118.99
75217;HTU21D;63800;51.972;5.682;2023-07-31T06:53:46;15.93;118.99
75217;HTU21D;63800;51.972;5.682;2023-07-31T06:56:11;16.08;118.99
75217;HTU21D;63800;51.972;5.682;2023-07-31T06:58:37;16.04;118.99
75217;HTU21D;63800;51.972;5.682;2023-07-31T07:01:02;16.19;118.99
75217;HTU21D;63800;51.972;5.682;2023-07-31T07:03:28;16.10;118.99
75217;HTU21D;63800;51.972;5.682;2023-07-31T07:05:53;16.21;118.99
75217;HTU21D;63800;51.972;5.682;2023-07-31T07:08:19;16.14;118.99
75217;HTU21D;63800;51.972;5.682;2023-07-31T07:10:44;16.27;118.99
75217;HTU21D;63800;51.972;5.682;2023-07-31T07:13:10;16.25;118.99
75217;HTU21D;63800;51.972;5.682;2023-07-31T07:15:35;16.16;118.99
75217;HTU21D;63800;51.972;5.682;2023-07-31T07:18:00;16.27;118.99
75217;HTU21D;63800;51.972;5.682;2023-07-31T07:20:26;16.17;118.99
75217;HTU21D;63800;51.972;5.682;2023-07-31T07:22:51;16.31;118.99
75217;HTU21D;63800;51.972;5.682;2023-07-31T07:25:17;16.31;118.99
75217;HTU21D;63800;51.972;5.682;2023-07-31T07:27:42;16.18;118.99
75217;HTU21D;63800;51.972;5.682;2023-07-31T07:30:09;16.29;118.99
75217;HTU21D;63800;51.972;5.682;2023-07-31T07:32:34;16.19;118.99
75217;HTU21D;63800;51.972;5.682;2023-07-31T07:35:00;16.14;118.99
75217;HTU21D;63800;51.972;5.682;2023-07-31T07:37:25;16.25;118.99
75217;HTU21D;63800;51.972;5.682;2023-07-31T07:39:51;16.18;118.99
75217;HTU21D;63800;51.972;5.682;2023-07-31T07:42:16;16.37;118.99
75217;HTU21D;63800;51.972;5.682;2023-07-31T07:44:42;16.28;118.99
75217;HTU21D;63800;51.972;5.682;2023-07-31T07:47:07;16.31;118.99
75217;HTU21D;63800;51.972;5.682;2023-07-31T07:49:34;16.32;118.99
75217;HTU21D;63800;51.972;5.682;2023-07-31T07:52:00;16.47;118.99
75217;HTU21D;63800;51.972;5.682;2023-07-31T07:54:25;16.34;118.99
75217;HTU21D;63800;51.972;5.682;2023-07-31T07:56:51;16.43;118.99
75217;HTU21D;63800;51.972;5.682;2023-07-31T07:59:17;16.51;118.99
75217;HTU21D;63800;51.972;5.682;2023-07-31T08:01:42;16.41;118.99
75217;HTU21D;63800;51.972;5.682;2023-07-31T08:04:08;16.37;118.99
75217;HTU21D;63800;51.972;5.682;2023-07-31T08:06:33;16.41;118.99
75217;HTU21D;63800;51.972;5.682;2023-07-31T08:08:59;16.44;118.99
75217;HTU21D;63800;51.972;5.682;2023-07-31T08:11:24;16.57;118.99
75217;HTU21D;63800;51.972;5.682;2023-07-31T08:13:50;16.44;118.99
75217;HTU21D;63800;51.972;5.682;2023-07-31T08:16:15;16.54;118.99
75217;HTU21D;63800;51.972;5.682;2023-07-31T08:18:41;16.59;118.99
75217;HTU21D;63800;51.972;5.682;2023-07-31T08:21:08;16.46;118.99
75217;HTU21D;63800;51.972;5.682;2023-07-31T08:23:33;16.55;118.99
75217;HTU21D;63800;51.972;5.682;2023-07-31T08:25:59;16.63;118.99
75217;HTU21D;63800;51.972;5.682;2023-07-31T08:28:25;16.54;118.99
75217;HTU21D;63800;51.972;5.682;2023-07-31T08:30:50;16.65;118.99
75217;HTU21D;63800;51.972;5.682;2023-07-31T08:33:16;16.55;118.99
75217;HTU21D;63800;51.972;5.682;2023-07-31T08:35:41;16.69;118.99
75217;HTU21D;63800;51.972;5.682;2023-07-31T08:38:06;16.76;118.99
75217;HTU21D;63800;51.972;5.682;2023-07-31T08:40:36;16.67;118.99
75217;HTU21D;63800;51.972;5.682;2023-07-31T08:43:02;16.75;118.99
75217;HTU21D;63800;51.972;5.682;2023-07-31T08:45:28;16.79;118.99
75217;HTU21D;63800;51.972;5.682;2023-07-31T08:47:55;16.77;118.99
75217;HTU21D;63800;51.972;5.682;2023-07-31T08:50:21;16.69;118.99
75217;HTU21D;63800;51.972;5.682;2023-07-31T08:52:48;16.72;118.99
75217;HTU21D;63800;51.972;5.682;2023-07-31T08:55:13;16.81;118.99
75217;HTU21D;63800;51.972;5.682;2023-07-31T08:57:39;16.78;118.99
75217;HTU21D;63800;51.972;5.682;2023-07-31T09:00:06;16.89;118.99
75217;HTU21D;63800;51.972;5.682;2023-07-31T09:02:43;16.76;118.99
75217;HTU21D;63800;51.972;5.682;2023-07-31T09:05:12;16.71;118.99
75217;HTU21D;63800;51.972;5.682;2023-07-31T09:07:38;16.59;118.99
75217;HTU21D;63800;51.972;5.682;2023-07-31T09:10:04;16.71;118.99
75217;HTU21D;63800;51.972;5.682;2023-07-31T09:12:30;16.67;118.99
75217;HTU21D;63800;51.972;5.682;2023-07-31T09:14:57;16.72;118.99
75217;HTU21D;63800;51.972;5.682;2023-07-31T09:17:34;16.65;118.99
75217;HTU21D;63800;51.972;5.682;2023-07-31T09:22:39;16.81;118.99
75217;HTU21D;63800;51.972;5.682;2023-07-31T09:25:18;16.74;118.99
75217;HTU21D;63800;51.972;5.682;2023-07-31T09:27:53;16.71;118.99
75217;HTU21D;63800;51.972;5.682;2023-07-31T09:30:19;16.79;118.99
75217;HTU21D;63800;51.972;5.682;2023-07-31T09:32:46;16.81;118.99
75217;HTU21D;63800;51.972;5.682;2023-07-31T09:35:22;16.81;118.99
75217;HTU21D;63800;51.972;5.682;2023-07-31T09:37:52;16.96;118.99
75217;HTU21D;63800;51.972;5.682;2023-07-31T09:40:29;16.93;118.99
75217;HTU21D;63800;51.972;5.682;2023-07-31T09:42:59;16.95;118.99
75217;HTU21D;63800;51.972;5.682;2023-07-31T09:45:25;17.08;118.98
75217;HTU21D;63800;51.972;5.682;2023-07-31T09:47:51;17.25;118.99
75217;HTU21D;63800;51.972;5.682;2023-07-31T09:50:19;17.24;118.99
75217;HTU21D;63800;51.972;5.682;2023-07-31T09:52:45;17.35;118.99
75217;HTU21D;63800;51.972;5.682;2023-07-31T09:55:12;17.41;118.99
75217;HTU21D;63800;51.972;5.682;2023-07-31T09:57:40;17.45;118.99
75217;HTU21D;63800;51.972;5.682;2023-07-31T10:00:10;17.37;118.99
75217;HTU21D;63800;51.972;5.682;2023-07-31T10:02:36;17.30;117.65
75217;HTU21D;63800;51.972;5.682;2023-07-31T10:05:03;17.24;118.99
75217;HTU21D;63800;51.972;5.682;2023-07-31T10:07:31;17.19;118.99
75217;HTU21D;63800;51.972;5.682;2023-07-31T10:10:00;17.21;118.99
75217;HTU21D;63800;51.972;5.682;2023-07-31T10:12:26;17.24;118.99
75217;HTU21D;63800;51.972;5.682;2023-07-31T10:14:55;17.48;118.99
75217;HTU21D;63800;51.972;5.682;2023-07-31T10:17:22;17.56;116.52
75217;HTU21D;63800;51.972;5.682;2023-07-31T10:19:49;17.49;115.91
75217;HTU21D;63800;51.972;5.682;2023-07-31T10:22:15;17.52;118.99
75217;HTU21D;63800;51.972;5.682;2023-07-31T10:24:42;17.59;116.79
75217;HTU21D;63800;51.972;5.682;2023-07-31T10:27:08;17.58;118.99
75217;HTU21D;63800;51.972;5.682;2023-07-31T10:29:35;17.59;118.99
75217;HTU21D;63800;51.972;5.682;2023-07-31T10:32:02;17.63;118.99
75217;HTU21D;63800;51.972;5.682;2023-07-31T10:34:28;17.52;118.99
75217;HTU21D;63800;51.972;5.682;2023-07-31T10:37:20;17.75;118.99
75217;HTU21D;63800;51.972;5.682;2023-07-31T10:40:06;17.62;118.99
75217;HTU21D;63800;51.972;5.682;2023-07-31T10:42:37;17.68;118.99
75217;HTU21D;63800;51.972;5.682;2023-07-31T10:45:06;17.70;117.33
75217;HTU21D;63800;51.972;5.682;2023-07-31T10:47:45;17.82;117.61
75217;HTU21D;63800;51.972;5.682;2023-07-31T10:50:16;17.69;118.99
75217;HTU21D;63800;51.972;5.682;2023-07-31T10:52:46;17.73;118.99
75217;HTU21D;63800;51.972;5.682;2023-07-31T10:55:26;17.66;118.99
75217;HTU21D;63800;51.972;5.682;2023-07-31T10:57:53;17.74;118.99
75217;HTU21D;63800;51.972;5.682;2023-07-31T11:00:27;17.80;118.99
75217;HTU21D;63800;51.972;5.682;2023-07-31T11:03:07;17.77;118.99
75217;HTU21D;63800;51.972;5.682;2023-07-31T11:05:53;17.69;117.04
75217;HTU21D;63800;51.972;5.682;2023-07-31T11:08:28;17.91;118.99
75217;HTU21D;63800;51.972;5.682;2023-07-31T11:13:51;17.66;118.15
75217;HTU21D;63800;51.972;5.682;2023-07-31T11:16:22;17.49;118.99
75217;HTU21D;63800;51.972;5.682;2023-07-31T11:18:49;17.61;118.99
75217;HTU21D;63800;51.972;5.682;2023-07-31T11:21:19;17.56;118.99
75217;HTU21D;63800;51.972;5.682;2023-07-31T11:23:46;17.58;118.99
75217;HTU21D;63800;51.972;5.682;2023-07-31T11:26:12;17.58;118.99
75217;HTU21D;63800;51.972;5.682;2023-07-31T11:28:37;17.76;118.99
75217;HTU21D;63800;51.972;5.682;2023-07-31T11:31:05;17.82;118.99
75217;HTU21D;63800;51.972;5.682;2023-07-31T11:33:33;17.95;117.97
75217;HTU21D;63800;51.972;5.682;2023-07-31T11:35:59;17.99;116.34
75217;HTU21D;63800;51.972;5.682;2023-07-31T11:40:53;17.92;118.99
75217;HTU21D;63800;51.972;5.682;2023-07-31T11:43:19;17.99;118.99
75217;HTU21D;63800;51.972;5.682;2023-07-31T11:45:52;17.94;118.99
75217;HTU21D;63800;51.972;5.682;2023-07-31T11:48:26;18.02;116.74
75217;HTU21D;63800;51.972;5.682;2023-07-31T11:50:58;18.04;118.99
75217;HTU21D;63800;51.972;5.682;2023-07-31T11:55:58;18.20;118.99
75217;HTU21D;63800;51.972;5.682;2023-07-31T11:58:24;18.36;118.42
75217;HTU21D;63800;51.972;5.682;2023-07-31T12:00:50;18.26;115.94
75217;HTU21D;63800;51.972;5.682;2023-07-31T12:03:15;18.24;115.66
75217;HTU21D;63800;51.972;5.682;2023-07-31T12:05:41;18.34;114.74
75217;HTU21D;63800;51.972;5.682;2023-07-31T12:08:11;18.38;115.32
75217;HTU21D;63800;51.972;5.682;2023-07-31T12:10:39;18.42;118.99
75217;HTU21D;63800;51.972;5.682;2023-07-31T12:13:10;18.33;115.77
75217;HTU21D;63800;51.972;5.682;2023-07-31T12:15:43;18.24;118.99
75217;HTU21D;63800;51.972;5.682;2023-07-31T12:18:10;18.19;118.99
75217;HTU21D;63800;51.972;5.682;2023-07-31T12:20:43;18.13;118.99
75217;HTU21D;63800;51.972;5.682;2023-07-31T12:23:17;18.19;118.99
75217;HTU21D;63800;51.972;5.682;2023-07-31T12:25:43;17.95;118.99
75217;HTU21D;63800;51.972;5.682;2023-07-31T12:28:09;18.06;116.44
75217;HTU21D;63800;51.972;5.682;2023-07-31T12:30:39;18.02;118.99
75217;HTU21D;63800;51.972;5.682;2023-07-31T12:33:14;18.12;118.99
75217;HTU21D;63800;51.972;5.682;2023-07-31T12:35:43;17.98;118.99
75217;HTU21D;63800;51.972;5.682;2023-07-31T12:38:08;17.89;118.99
75217;HTU21D;63800;51.972;5.682;2023-07-31T12:40:37;17.98;118.99
75217;HTU21D;63800;51.972;5.682;2023-07-31T12:43:04;18.18;118.99
75217;HTU21D;63800;51.972;5.682;2023-07-31T12:45:30;18.23;118.99
75217;HTU21D;63800;51.972;5.682;2023-07-31T12:47:56;18.34;118.99
75217;HTU21D;63800;51.972;5.682;2023-07-31T12:50:22;18.34;118.99
75217;HTU21D;63800;51.972;5.682;2023-07-31T12:52:48;18.06;118.99
75217;HTU21D;63800;51.972;5.682;2023-07-31T12:55:14;18.21;118.99
75217;HTU21D;63800;51.972;5.682;2023-07-31T12:57:40;18.23;118.99
75217;HTU21D;63800;51.972;5.682;2023-07-31T13:00:07;17.98;118.50
75217;HTU21D;63800;51.972;5.682;2023-07-31T13:02:33;17.85;118.99
75217;HTU21D;63800;51.972;5.682;2023-07-31T13:04:58;17.90;118.90
75217;HTU21D;63800;51.972;5.682;2023-07-31T13:07:24;17.73;118.99
75217;HTU21D;63800;51.972;5.682;2023-07-31T13:09:50;17.78;118.99
75217;HTU21D;63800;51.972;5.682;2023-07-31T13:12:16;17.89;118.99
75217;HTU21D;63800;51.972;5.682;2023-07-31T13:14:41;17.94;118.99
75217;HTU21D;63800;51.972;5.682;2023-07-31T13:17:06;17.89;118.99
75217;HTU21D;63800;51.972;5.682;2023-07-31T13:19:32;17.85;118.98
75217;HTU21D;63800;51.972;5.682;2023-07-31T13:21:57;18.18;118.99
75217;HTU21D;63800;51.972;5.682;2023-07-31T13:24:23;18.18;118.99
75217;HTU21D;63800;51.972;5.682;2023-07-31T13:26:48;18.20;118.99
75217;HTU21D;63800;51.972;5.682;2023-07-31T13:29:14;18.02;118.67
75217;HTU21D;63800;51.972;5.682;2023-07-31T13:31:40;18.23;118.99
75217;HTU21D;63800;51.972;5.682;2023-07-31T13:34:05;18.19;118.99
75217;HTU21D;63800;51.972;5.682;2023-07-31T13:36:30;18.14;118.99
75217;HTU21D;63800;51.972;5.682;2023-07-31T13:38:56;18.11;118.99
75217;HTU21D;63800;51.972;5.682;2023-07-31T13:41:21;17.95;118.99
75217;HTU21D;63800;51.972;5.682;2023-07-31T13:43:47;18.02;118.99
75217;HTU21D;63800;51.972;5.682;2023-07-31T13:46:12;17.89;118.99
75217;HTU21D;63800;51.972;5.682;2023-07-31T13:48:38;17.89;118.99
75217;HTU21D;63800;51.972;5.682;2023-07-31T13:51:03;17.90;118.99
75217;HTU21D;63800;51.972;5.682;2023-07-31T13:53:29;17.92;118.99
75217;HTU21D;63800;51.972;5.682;2023-07-31T13:55:54;17.88;118.99
75217;HTU21D;63800;51.972;5.682;2023-07-31T13:58:20;17.77;118.99
75217;HTU21D;63800;51.972;5.682;2023-07-31T14:00:46;17.88;118.99
75217;HTU21D;63800;51.972;5.682;2023-07-31T14:03:11;17.92;118.99
75217;HTU21D;63800;51.972;5.682;2023-07-31T14:05:37;17.93;118.99
75217;HTU21D;63800;51.972;5.682;2023-07-31T14:08:03;17.96;118.99
75217;HTU21D;63800;51.972;5.682;2023-07-31T14:10:28;18.04;118.99
75217;HTU21D;63800;51.972;5.682;2023-07-31T14:12:54;17.95;118.99
75217;HTU21D;63800;51.972;5.682;2023-07-31T14:15:19;18.04;118.99
75217;HTU21D;63800;51.972;5.682;2023-07-31T14:17:45;18.08;118.99
75217;HTU21D;63800;51.972;5.682;2023-07-31T14:20:10;18.06;118.99
75217;HTU21D;63800;51.972;5.682;2023-07-31T14:22:36;17.96;118.99
75217;HTU21D;63800;51.972;5.682;2023-07-31T14:25:03;18.00;118.99
75217;HTU21D;63800;51.972;5.682;2023-07-31T14:27:28;18.13;118.99
75217;HTU21D;63800;51.972;5.682;2023-07-31T14:29:54;18.17;118.99
75217;HTU21D;63800;51.972;5.682;2023-07-31T14:32:20;18.07;118.99
75217;HTU21D;63800;51.972;5.682;2023-07-31T14:34:46;17.97;118.99
75217;HTU21D;63800;51.972;5.682;2023-07-31T14:37:11;18.03;118.99
75217;HTU21D;63800;51.972;5.682;2023-07-31T14:39:37;17.90;118.99
75217;HTU21D;63800;51.972;5.682;2023-07-31T14:42:02;18.03;118.99
75217;HTU21D;63800;51.972;5.682;2023-07-31T14:44:28;17.75;118.99
75217;HTU21D;63800;51.972;5.682;2023-07-31T14:46:53;17.85;118.99
75217;HTU21D;63800;51.972;5.682;2023-07-31T14:49:18;17.84;118.99
75217;HTU21D;63800;51.972;5.682;2023-07-31T14:51:44;17.92;118.99
75217;HTU21D;63800;51.972;5.682;2023-07-31T14:54:09;17.97;118.99
75217;HTU21D;63800;51.972;5.682;2023-07-31T14:56:35;17.84;118.99
75217;HTU21D;63800;51.972;5.682;2023-07-31T14:59:00;17.79;118.99
75217;HTU21D;63800;51.972;5.682;2023-07-31T15:01:26;17.78;118.99
75217;HTU21D;63800;51.972;5.682;2023-07-31T15:03:51;17.77;118.99
75217;HTU21D;63800;51.972;5.682;2023-07-31T15:06:17;17.83;118.99
75217;HTU21D;63800;51.972;5.682;2023-07-31T15:08:42;17.81;118.99
75217;HTU21D;63800;51.972;5.682;2023-07-31T15:11:09;17.91;118.99
75217;HTU21D;63800;51.972;5.682;2023-07-31T15:13:34;17.80;118.99
75217;HTU21D;63800;51.972;5.682;2023-07-31T15:16:00;17.91;118.99
75217;HTU21D;63800;51.972;5.682;2023-07-31T15:18:25;17.74;118.99